Bonesteel, South Dakota
Current Conditions -  °F | °C
As of 3:35 AM on Wednesday 26 Nov 2014 (Local Time) from KONL Reporting Station
Overcast Overcast  
Wind Chill: 23°   Ceiling: 2400
Heat Index: 36°   Visibility: 10mi
Dew Point: 30°   Wind: 28mph
Humidity: 80%   Direction: 310°NW
Pressure: 29.93"   Gusts: 38mph
Location:  43.08°N, 98.94°W
Report Text: KONL 260935Z AUTO 31024G33KT 10SM OVC024 02/M01 A2993 RMK AO2 T00201012
Loading
Personal Weather Stations






























Interactive Weather Map New forecast layout! Learn more

10-Day Weather Forecast

Advertisements
Track Severe Weather on mobile